Time;durP1;ratioP1;P1;durP2;ratioP2;P2;SDS_P1;SDS_P2;PMS_P1;PMS_P2;Temp;Humidity;BMP_temperature;BMP_pressure;BME280_temperature;BME280_humidity;BME280_pressure;Samples;Min_cycle;Max_cycle;Signal;HPM_P1;HPM_P2
2024/04/25 00:01:48;;;;;;;4.38;2.10;;;;;;;9.44;55.52;100787.53;5317518;26;112306;-70
2024/04/25 00:04:15;;;;;;;5.72;2.25;;;;;;;9.45;55.59;100778.66;5314160;26;122393;-70
2024/04/25 00:06:43;;;;;;;7.05;2.50;;;;;;;9.46;55.62;100777.75;5323188;26;122349;-70
2024/04/25 00:09:10;;;;;;;6.03;2.47;;;;;;;9.45;55.64;100770.72;5289134;26;110905;-70
2024/04/25 00:11:38;;;;;;;5.95;2.60;;;;;;;9.42;55.61;100770.88;5318593;26;108554;-71
2024/04/25 00:14:05;;;;;;;5.75;2.53;;;;;;;9.43;55.71;100769.94;5309477;26;122977;-71
2024/04/25 00:16:34;;;;;;;4.68;2.55;;;;;;;9.42;55.66;100762.06;5321480;26;121484;-70
2024/04/25 00:19:01;;;;;;;5.85;2.70;;;;;;;9.40;55.62;100762.16;5313408;26;112448;-70
2024/04/25 00:21:29;;;;;;;4.30;2.78;;;;;;;9.39;55.51;100763.06;5327968;26;112971;-70
2024/04/25 00:23:56;;;;;;;6.97;2.50;;;;;;;9.36;55.44;100763.19;5283742;26;122739;-70
2024/04/25 00:26:24;;;;;;;5.43;2.55;;;;;;;9.32;55.32;100758.94;5316121;26;122143;-70
2024/04/25 00:28:51;;;;;;;3.92;2.40;;;;;;;9.27;55.35;100753.88;5325028;26;113259;-70
2024/04/25 00:31:20;;;;;;;9.95;2.80;;;;;;;9.25;55.42;100754.84;5324175;26;114249;-70
2024/04/25 00:33:47;;;;;;;5.68;2.42;;;;;;;9.21;55.31;100747.97;5318262;26;123093;-71
2024/04/25 00:36:15;;;;;;;7.47;2.80;;;;;;;9.18;55.46;100753.38;5325903;26;122217;-70
2024/04/25 00:38:42;;;;;;;8.40;2.90;;;;;;;9.13;55.30;100746.47;5316797;26;112012;-71
2024/04/25 00:41:10;;;;;;;6.35;2.70;;;;;;;9.08;55.35;100737.91;5319904;26;112837;-70
2024/04/25 00:43:38;;;;;;;5.47;2.45;;;;;;;9.03;55.33;100742.50;5311069;26;122166;-71
2024/04/25 00:46:05;;;;;;;8.32;2.70;;;;;;;8.99;55.40;100743.56;5314739;26;121471;-70
2024/04/25 00:48:33;;;;;;;6.10;2.58;;;;;;;8.96;55.39;100743.66;5319412;26;112701;-71
2024/04/25 00:51:03;;;;;;;8.40;2.60;;;;;;;8.91;55.56;100735.06;5321599;26;112263;-71
2024/04/25 00:53:31;;;;;;;5.88;2.28;;;;;;;8.89;55.26;100736.91;5305715;26;123221;-71
2024/04/25 00:56:01;;;;;;;7.80;2.20;;;;;;;8.85;55.53;100735.31;5312229;26;122924;-70
2024/04/25 00:58:30;;;;;;;9.27;2.42;;;;;;;8.80;55.36;100745.19;5328735;26;113612;-70
2024/04/25 01:01:00;;;;;;;6.45;2.38;;;;;;;8.76;55.56;100736.56;5323957;26;112475;-71
2024/04/25 01:03:31;;;;;;;8.23;2.60;;;;;;;8.71;55.60;100739.34;5323250;26;122825;-70
2024/04/25 01:06:02;;;;;;;10.63;2.78;;;;;;;8.67;55.55;100732.47;5287691;26;122271;-71
2024/04/25 01:08:31;;;;;;;9.43;2.63;;;;;;;8.65;55.63;100734.31;5313062;26;112696;-71
2024/04/25 01:10:59;;;;;;;6.18;2.65;;;;;;;8.60;55.73;100736.28;5320609;26;112525;-71
2024/04/25 01:13:27;;;;;;;9.00;2.85;;;;;;;8.56;55.55;100740.81;5317949;26;122820;-71
2024/04/25 01:15:55;;;;;;;7.70;2.50;;;;;;;8.54;55.62;100737.38;5322727;26;122242;-70
2024/04/25 01:18:23;;;;;;;6.32;2.50;;;;;;;8.50;55.45;100729.63;5318909;26;113543;-70
2024/04/25 01:20:50;;;;;;;11.27;2.50;;;;;;;8.46;55.50;100728.91;5312884;26;113598;-69
2024/04/25 01:23:18;;;;;;;10.40;2.40;;;;;;;8.43;55.66;100729.00;5317067;26;122909;-70
2024/04/25 01:25:46;;;;;;;7.57;2.55;;;;;;;8.39;55.61;100733.50;5327243;26;122243;-70
2024/04/25 01:28:15;;;;;;;6.70;2.40;;;;;;;8.36;55.76;100733.63;5332697;26;113372;-70
2024/04/25 01:30:44;;;;;;;8.43;2.45;;;;;;;8.32;55.68;100726.72;5326727;26;112946;-70
2024/04/25 01:33:13;;;;;;;7.22;2.45;;;;;;;8.28;55.79;100730.41;5330789;26;122030;-71
2024/04/25 01:35:44;;;;;;;8.57;2.72;;;;;;;8.25;55.76;100719.97;5317485;26;124035;-70
2024/04/25 01:38:12;;;;;;;9.68;2.47;;;;;;;8.23;55.98;100716.53;5318884;26;112970;-70
2024/04/25 01:40:40;;;;;;;8.55;2.45;;;;;;;8.22;56.11;100719.22;5332406;26;112423;-70
2024/04/25 01:43:08;;;;;;;6.43;2.67;;;;;;;8.22;56.02;100714.81;5298916;26;122340;-71
2024/04/25 01:45:35;;;;;;;8.77;2.22;;;;;;;8.21;55.85;100702.53;5330188;26;123384;-71
2024/04/25 01:48:03;;;;;;;13.70;2.85;;;;;;;8.20;55.98;100708.72;5328972;26;113323;-70
2024/04/25 01:50:30;;;;;;;5.63;2.50;;;;;;;8.19;56.12;100699.09;5320632;26;113401;-70
2024/04/25 01:52:58;;;;;;;9.60;2.83;;;;;;;8.16;55.98;100699.22;5292754;26;121612;-70
2024/04/25 01:55:25;;;;;;;8.00;2.60;;;;;;;8.13;56.11;100696.69;5319139;26;122349;-70
2024/04/25 01:57:53;;;;;;;7.75;2.67;;;;;;;8.12;56.25;100708.16;5307201;26;113086;-70
2024/04/25 02:00:20;;;;;;;5.85;2.42;;;;;;;8.09;56.17;100708.28;5324733;26;112822;-70
2024/04/25 02:02:48;;;;;;;7.20;2.63;;;;;;;8.09;56.41;100709.13;5328316;26;122197;-70
2024/04/25 02:05:15;;;;;;;8.20;2.60;;;;;;;8.08;56.29;100709.16;5327048;26;122738;-64
2024/04/25 02:07:43;;;;;;;9.82;2.85;;;;;;;8.09;56.36;100703.00;5311348;26;111715;-65
2024/04/25 02:10:10;;;;;;;4.53;2.67;;;;;;;8.07;56.39;100699.56;5326445;26;113217;-64
2024/04/25 02:12:38;;;;;;;7.82;2.60;;;;;;;8.08;56.46;100706.53;5326380;26;122210;-64
2024/04/25 02:15:05;;;;;;;8.45;3.70;;;;;;;8.09;56.41;100703.00;5321275;26;122378;-64
2024/04/25 02:17:34;;;;;;;10.32;2.65;;;;;;;8.09;56.36;100703.00;5322785;26;112669;-64
2024/04/25 02:25:13;;;;;;;6.20;2.45;;;;;;;8.11;56.45;100698.53;5326463;26;112869;-65
2024/04/25 02:25:36;;;;;;;3.92;2.08;;;;;;;8.11;56.63;100701.16;5314030;26;122053;-65
2024/04/25 02:28:03;;;;;;;10.93;2.80;;;;;;;8.12;56.76;100692.34;5324143;26;113591;-64
2024/04/25 02:30:31;;;;;;;9.45;3.10;;;;;;;8.15;56.59;100692.22;5312216;26;112781;-65
2024/04/25 02:32:58;;;;;;;9.60;2.75;;;;;;;8.17;56.74;100695.66;5292250;26;122843;-65
2024/04/25 02:35:26;;;;;;;11.80;3.15;;;;;;;8.19;56.77;100688.53;5313351;26;122586;-65
2024/04/25 02:37:53;;;;;;;7.38;3.00;;;;;;;8.24;56.83;100691.00;5327001;26;112623;-65
2024/04/25 02:40:20;;;;;;;9.32;2.80;;;;;;;8.27;56.86;100690.88;5320731;26;112787;-65
2024/04/25 02:42:48;;;;;;;7.82;2.67;;;;;;;8.30;56.80;100680.22;5282445;26;122105;-65
2024/04/25 02:45:15;;;;;;;7.43;2.97;;;;;;;8.32;56.88;100679.22;5327288;26;122079;-67
2024/04/25 02:47:42;;;;;;;6.13;2.53;;;;;;;8.35;56.82;100673.84;5319356;26;112616;-65
2024/04/25 02:50:11;;;;;;;10.20;2.97;;;;;;;8.36;56.88;100675.59;5319169;26;112548;-65
2024/04/25 02:52:38;;;;;;;10.20;2.65;;;;;;;8.40;56.94;100676.31;5297229;26;122306;-65
2024/04/25 02:55:06;;;;;;;10.68;3.00;;;;;;;8.42;57.10;100673.63;5320016;26;122048;-65
2024/04/25 02:57:33;;;;;;;10.73;3.00;;;;;;;8.45;57.04;100684.06;5308600;26;112336;-65
2024/04/25 03:00:01;;;;;;;9.50;3.15;;;;;;;8.47;57.05;100671.69;5327389;26;113810;-65
2024/04/25 03:02:29;;;;;;;7.20;3.30;;;;;;;8.49;56.94;100675.13;5293509;26;121227;-66
2024/04/25 03:04:56;;;;;;;8.82;3.13;;;;;;;8.51;56.93;100674.16;5312463;26;122341;-66
2024/04/25 03:07:24;;;;;;;5.95;2.80;;;;;;;8.52;56.99;100682.94;5327937;26;112421;-66
2024/04/25 03:09:51;;;;;;;9.80;3.22;;;;;;;8.54;56.98;100673.16;5318033;26;112541;-65
2024/04/25 03:12:19;;;;;;;10.45;3.45;;;;;;;8.56;56.89;100671.31;5288800;26;122208;-66
2024/04/25 03:14:46;;;;;;;10.18;2.90;;;;;;;8.55;57.00;100674.88;5329455;26;122313;-66
2024/04/25 03:17:14;;;;;;;8.35;3.20;;;;;;;8.55;56.86;100669.59;5329518;26;113995;-66
2024/04/25 03:19:41;;;;;;;9.15;2.90;;;;;;;8.56;56.83;100668.69;5320674;26;112964;-66
2024/04/25 03:22:09;;;;;;;8.73;2.85;;;;;;;8.56;56.97;100671.31;5288740;26;122273;-66
2024/04/25 03:24:36;;;;;;;7.53;2.88;;;;;;;8.56;57.05;100660.75;5312255;26;122487;-65
2024/04/25 03:27:04;;;;;;;7.00;2.67;;;;;;;8.57;57.02;100667.78;5319228;26;112391;-65
2024/04/25 03:29:31;;;;;;;10.20;3.38;;;;;;;8.56;57.12;100660.75;5326056;26;112865;-65
2024/04/25 03:31:58;;;;;;;9.43;3.13;;;;;;;8.57;56.96;100662.50;5317825;26;122290;-65
2024/04/25 03:34:26;;;;;;;9.02;2.50;;;;;;;8.56;56.99;100660.75;5278719;26;125798;-65
2024/04/25 03:36:56;;;;;;;5.85;2.83;;;;;;;8.57;56.88;100657.22;5319678;26;113044;-65
2024/04/25 03:39:23;;;;;;;9.18;3.15;;;;;;;8.57;56.96;100651.94;5320571;26;112871;-65
2024/04/25 03:41:51;;;;;;;9.18;2.80;;;;;;;8.56;56.89;100656.34;5330913;26;122031;-65
2024/04/25 03:44:18;;;;;;;4.82;2.28;;;;;;;8.56;56.93;100655.50;5325210;26;122261;-66
2024/04/25 03:46:46;;;;;;;5.70;2.50;;;;;;;8.54;56.97;100657.34;5332325;26;113115;-65
2024/04/25 03:49:14;;;;;;;7.15;2.42;;;;;;;8.54;56.92;100657.34;5323228;26;113327;-66
2024/04/25 03:51:41;;;;;;;11.05;2.75;;;;;;;8.53;56.97;100660.88;5290177;26;124572;-65
2024/04/25 03:54:11;;;;;;;4.63;2.17;;;;;;;8.53;56.90;100658.22;5323909;26;95323;-65
2024/04/25 03:56:38;;;;;;;6.60;2.13;;;;;;;8.52;56.83;100656.53;5325512;26;112337;-65
2024/04/25 03:59:06;;;;;;;7.28;2.20;;;;;;;8.51;56.88;100654.78;5312906;26;112217;-65
2024/04/25 04:01:33;;;;;;;6.40;2.33;;;;;;;8.47;56.79;100648.78;5316500;26;123067;-65
2024/04/25 04:04:01;;;;;;;7.53;2.38;;;;;;;8.45;56.73;100647.97;5293402;26;120941;-65
2024/04/25 04:06:28;;;;;;;8.02;2.17;;;;;;;8.41;56.83;100650.78;5330241;26;112674;-65
2024/04/25 04:08:55;;;;;;;6.65;2.05;;;;;;;8.38;56.94;100641.19;5332109;26;113244;-65
2024/04/25 04:11:23;;;;;;;5.30;1.92;;;;;;;8.36;56.61;100637.75;5284520;26;122570;-65
2024/04/25 04:13:50;;;;;;;5.05;1.75;;;;;;;8.33;56.55;100644.03;5313990;26;123061;-65
2024/04/25 04:16:17;;;;;;;4.18;2.13;;;;;;;8.31;56.49;100640.59;5320765;26;113546;-65
2024/04/25 04:18:46;;;;;;;2.88;1.60;;;;;;;8.28;56.58;100640.69;5328602;26;112623;-65
2024/04/25 04:21:13;;;;;;;4.82;1.52;;;;;;;8.26;56.43;100639.91;5314345;26;123359;-65
2024/04/25 04:23:42;;;;;;;5.32;1.90;;;;;;;8.24;56.58;100633.81;5299419;26;123111;-65
2024/04/25 04:26:10;;;;;;;2.78;1.60;;;;;;;8.22;56.51;100638.31;5320227;26;112587;-65
2024/04/25 04:28:37;;;;;;;3.20;1.38;;;;;;;8.21;56.52;100644.47;5303034;26;111133;-65
2024/04/25 04:31:06;;;;;;;2.58;1.50;;;;;;;8.19;56.56;100646.31;5325103;26;122111;-65
2024/04/25 04:33:34;;;;;;;3.78;1.52;;;;;;;8.18;56.35;100649.91;5318321;26;121993;-65
2024/04/25 04:36:07;;;;;;;4.13;1.30;;;;;;;8.18;56.36;100644.63;5316777;26;113734;-65
2024/04/25 04:38:35;;;;;;;5.53;1.83;;;;;;;8.16;56.54;100641.19;5316683;26;113201;-65
2024/04/25 04:41:03;;;;;;;5.55;1.42;;;;;;;8.15;56.42;100639.44;5293415;26;125996;-65
2024/04/25 04:43:30;;;;;;;7.03;1.95;;;;;;;8.15;56.37;100644.72;5324382;26;122622;-64
2024/04/25 04:46:00;;;;;;;6.00;1.85;;;;;;;8.15;56.55;100644.72;5330013;26;112750;-65
2024/04/25 04:48:28;;;;;;;5.85;1.88;;;;;;;8.15;56.68;100644.72;5298838;26;112351;-65
2024/04/25 04:51:02;;;;;;;3.13;1.67;;;;;;;8.17;56.66;100637.59;5285881;26;122858;-65
2024/04/25 04:53:29;;;;;;;4.30;1.52;;;;;;;8.19;56.68;100635.78;5308508;26;122441;-65
2024/04/25 04:55:57;;;;;;;3.15;1.70;;;;;;;8.22;56.58;100635.66;5320342;26;112896;-65
2024/04/25 04:58:25;;;;;;;9.02;2.38;;;;;;;8.24;56.77;100633.81;5325804;26;112441;-65
2024/04/25 05:00:52;;;;;;;7.85;1.90;;;;;;;8.27;56.76;100633.72;5322357;26;123022;-65
2024/04/25 05:03:19;;;;;;;5.78;1.88;;;;;;;8.31;56.67;100634.47;5325573;26;122477;-65
2024/04/25 05:05:47;;;;;;;5.05;2.28;;;;;;;8.33;56.77;100638.75;5325393;26;113069;-65
2024/04/25 05:08:14;;;;;;;6.90;2.20;;;;;;;8.36;56.71;100636.00;5314913;26;112916;-65
2024/04/25 05:10:42;;;;;;;4.43;2.00;;;;;;;8.39;56.90;100633.22;5318455;26;122131;-65
2024/04/25 05:13:11;;;;;;;3.75;2.00;;;;;;;8.46;56.89;100643.59;5321377;26;121852;-65
2024/04/25 05:15:39;;;;;;;6.60;2.38;;;;;;;8.49;56.87;100643.44;5321519;26;112650;-65
2024/04/25 05:18:07;;;;;;;4.75;2.25;;;;;;;8.52;56.67;100640.69;5322131;26;112438;-65
2024/04/25 05:20:35;;;;;;;7.40;2.25;;;;;;;8.54;56.69;100641.50;5325532;26;122115;-65
2024/04/25 05:23:02;;;;;;;5.60;2.38;;;;;;;8.57;56.76;100644.03;5316177;26;121964;-66
2024/04/25 05:25:30;;;;;;;5.28;2.40;;;;;;;8.60;56.78;100641.25;5274055;26;113283;-65
2024/04/25 05:27:57;;;;;;;5.57;2.35;;;;;;;8.64;56.63;100640.19;5315482;26;113225;-65
2024/04/25 05:30:25;;;;;;;6.70;2.75;;;;;;;8.66;56.59;100635.69;5318762;26;122534;-65
2024/04/25 05:32:53;;;;;;;5.18;2.40;;;;;;;8.69;56.71;100646.16;5322913;26;122073;-68
2024/04/25 05:35:21;;;;;;;5.05;2.60;;;;;;;8.71;56.72;100633.75;5269517;26;111421;-70
2024/04/25 05:37:48;;;;;;;5.80;2.35;;;;;;;8.76;56.72;100639.69;5327423;26;112992;-70
2024/04/25 05:40:15;;;;;;;5.78;2.50;;;;;;;8.80;56.75;100637.81;5320458;26;123680;-70
2024/04/25 05:42:44;;;;;;;6.53;2.85;;;;;;;8.84;56.73;100633.25;5322886;26;122173;-70
2024/04/25 05:45:11;;;;;;;4.80;2.60;;;;;;;8.88;56.59;100629.56;5318411;26;112969;-72
2024/04/25 05:47:39;;;;;;;8.52;2.72;;;;;;;8.90;56.61;100627.72;5325199;26;112578;-70
2024/04/25 05:50:06;;;;;;;6.40;3.10;;;;;;;8.93;56.64;100635.53;5320585;26;122331;-70
2024/04/25 05:52:36;;;;;;;5.25;2.75;;;;;;;8.94;56.54;100634.59;5275392;26;120057;-71
2024/04/25 05:55:04;;;;;;;6.88;3.30;;;;;;;8.96;56.57;100632.72;5317345;26;114235;-71
2024/04/25 05:57:32;;;;;;;7.88;3.45;;;;;;;8.99;56.78;100627.34;5281505;26;111342;-71
2024/04/25 05:59:59;;;;;;;4.50;2.83;;;;;;;9.02;56.61;100632.47;5324621;26;122382;-71
2024/04/25 06:02:27;;;;;;;5.43;2.95;;;;;;;9.05;56.69;100629.72;5331434;26;122289;-72
2024/04/25 06:04:55;;;;;;;5.53;3.35;;;;;;;9.08;56.62;100634.88;5328399;26;112485;-71
2024/04/25 06:07:22;;;;;;;7.63;3.67;;;;;;;9.10;56.71;100630.38;5293164;26;112684;-71
2024/04/25 06:09:51;;;;;;;5.80;3.00;;;;;;;9.13;56.69;100624.94;5324596;26;122103;-70
2024/04/25 06:12:19;;;;;;;6.03;2.85;;;;;;;9.19;56.62;100628.25;5317987;26;122206;-70
2024/04/25 06:14:46;;;;;;;8.13;3.25;;;;;;;9.21;56.68;100631.69;5326071;26;113597;-70
2024/04/25 06:17:14;;;;;;;4.95;3.03;;;;;;;9.25;56.57;100628.88;5326734;26;113232;-70
2024/04/25 06:19:48;;;;;;;6.50;2.95;;;;;;;9.27;56.47;100631.44;5323732;26;122550;-70
2024/04/25 06:22:15;;;;;;;6.43;3.40;;;;;;;9.30;56.60;100631.28;5322606;26;122739;-70
2024/04/25 06:24:42;;;;;;;5.93;2.85;;;;;;;9.36;56.65;100631.03;5319756;26;112597;-70
2024/04/25 06:27:10;;;;;;;7.00;3.05;;;;;;;9.41;56.58;100623.75;5316012;26;112523;-69
2024/04/25 06:29:37;;;;;;;6.72;3.10;;;;;;;9.48;56.60;100619.94;5318952;26;122643;-69
2024/04/25 06:32:05;;;;;;;8.02;3.50;;;;;;;9.57;56.92;100623.09;5331994;26;122181;-68
2024/04/25 06:34:33;;;;;;;7.53;3.50;;;;;;;9.66;56.72;100627.97;5329790;26;112453;-70
2024/04/25 06:37:04;;;;;;;6.90;3.25;;;;;;;9.78;56.75;100616.84;5313751;26;110130;-68
2024/04/25 06:39:32;;;;;;;7.55;3.15;;;;;;;9.86;56.67;100625.28;5325548;26;122621;-69
2024/04/25 06:42:01;;;;;;;6.40;3.38;;;;;;;9.94;56.68;100622.28;5324386;26;122346;-69
2024/04/25 06:44:29;;;;;;;6.68;3.38;;;;;;;10.03;56.66;100626.31;5334438;26;112565;-69
2024/04/25 06:47:06;;;;;;;5.95;3.20;;;;;;;10.11;56.66;100613.56;5320924;26;113260;-69
2024/04/25 06:49:34;;;;;;;7.25;2.70;;;;;;;10.20;56.67;100618.44;5318621;26;122951;-69
2024/04/25 06:52:02;;;;;;;8.15;2.85;;;;;;;10.30;56.45;100609.16;5278658;26;121243;-69
2024/04/25 06:54:29;;;;;;;6.93;2.92;;;;;;;10.38;56.59;100610.56;5332441;26;112644;-69
2024/04/25 06:56:57;;;;;;;9.18;3.55;;;;;;;10.47;56.52;100615.41;5317121;26;112533;-69
2024/04/25 06:59:24;;;;;;;9.98;3.35;;;;;;;10.49;56.13;100618.84;5315784;26;122768;-70
2024/04/25 07:01:54;;;;;;;8.85;3.38;;;;;;;10.50;56.05;100615.28;5324521;26;122050;-69
2024/04/25 07:04:21;;;;;;;6.97;3.13;;;;;;;10.50;56.20;100615.28;5315567;26;113473;-68
2024/04/25 07:06:48;;;;;;;9.00;3.17;;;;;;;10.54;55.95;100616.84;5325342;26;114130;-69
2024/04/25 07:09:16;;;;;;;7.40;2.97;;;;;;;10.58;55.97;100607.81;5334041;26;122171;-68
2024/04/25 07:11:43;;;;;;;7.13;3.03;;;;;;;10.61;56.00;100602.38;5295420;26;120797;-68
2024/04/25 07:14:11;;;;;;;5.75;3.10;;;;;;;10.64;55.98;100606.66;5327979;26;112664;-69
2024/04/25 07:16:39;;;;;;;6.80;2.88;;;;;;;10.65;55.84;100598.63;5324960;26;112379;-68
2024/04/25 07:19:06;;;;;;;8.20;3.33;;;;;;;10.67;55.80;100602.06;5328789;26;122395;-69
2024/04/25 07:21:33;;;;;;;6.63;3.10;;;;;;;10.69;55.68;100600.19;5323040;26;121990;-68
2024/04/25 07:24:03;;;;;;;7.25;2.97;;;;;;;10.74;55.76;100601.75;5333699;26;112599;-69
2024/04/25 07:26:30;;;;;;;5.28;2.85;;;;;;;10.78;55.79;100603.34;5329480;26;112417;-69
2024/04/25 07:28:58;;;;;;;5.15;2.70;;;;;;;10.83;55.70;100606.59;5333191;26;122771;-68
2024/04/25 07:31:25;;;;;;;7.28;2.85;;;;;;;10.86;55.74;100595.84;5308983;26;122266;-68
2024/04/25 07:33:53;;;;;;;6.85;2.67;;;;;;;10.87;55.45;100600.25;5319961;26;112817;-68
2024/04/25 07:36:23;;;;;;;5.18;2.75;;;;;;;10.90;55.58;100608.00;5328930;26;112544;-68
2024/04/25 07:38:50;;;;;;;6.80;2.83;;;;;;;10.90;55.52;100608.00;5303100;26;122340;-68
2024/04/25 07:41:18;;;;;;;7.53;2.90;;;;;;;10.91;55.31;100604.44;5320399;26;122082;-68
2024/04/25 07:43:47;;;;;;;9.52;2.67;;;;;;;10.93;55.40;100604.38;5326211;26;112269;-69
2024/04/25 07:46:15;;;;;;;6.20;2.47;;;;;;;10.91;55.31;100609.75;5315707;26;111247;-69
2024/04/25 07:48:44;;;;;;;6.25;2.40;;;;;;;10.90;55.20;100600.06;5303539;26;122488;-68
2024/04/25 07:51:12;;;;;;;5.63;2.78;;;;;;;10.88;55.21;100588.69;5322612;26;121935;-68
2024/04/25 07:53:39;;;;;;;6.28;2.78;;;;;;;10.87;55.06;100602.88;5289436;26;112830;-68
2024/04/25 07:56:07;;;;;;;6.15;2.88;;;;;;;10.84;55.11;100597.72;5291037;26;113712;-68
2024/04/25 07:58:34;;;;;;;5.20;2.40;;;;;;;10.84;55.15;100597.72;5325793;26;123535;-68
2024/04/25 08:01:02;;;;;;;5.10;2.60;;;;;;;10.84;55.07;100592.44;5316529;26;122153;-68
2024/04/25 08:03:30;;;;;;;5.13;2.80;;;;;;;10.85;55.06;100599.44;5321771;26;112987;-69
2024/04/25 08:05:57;;;;;;;7.00;2.60;;;;;;;10.88;55.26;100594.84;5328615;26;112731;-68
2024/04/25 08:08:25;;;;;;;6.47;2.83;;;;;;;10.93;55.52;100584.03;5326857;26;121515;-68
2024/04/25 08:10:53;;;;;;;5.03;2.58;;;;;;;11.00;55.38;100582.78;5320597;26;122983;-69
2024/04/25 08:13:20;;;;;;;9.40;3.35;;;;;;;11.09;55.31;100587.63;5321934;26;113400;-68
2024/04/25 08:15:47;;;;;;;6.40;3.00;;;;;;;11.17;55.37;100589.00;5290874;26;112445;-68
2024/04/25 08:18:16;;;;;;;6.68;3.03;;;;;;;11.23;55.27;100586.88;5322725;26;123210;-68
2024/04/25 08:20:43;;;;;;;6.13;3.30;;;;;;;11.32;55.38;100593.53;5318961;26;123352;-68
2024/04/25 08:23:11;;;;;;;7.22;3.42;;;;;;;11.37;55.27;100586.16;5300012;26;112474;-68
2024/04/25 08:25:38;;;;;;;4.95;2.78;;;;;;;11.43;55.18;100585.84;5321680;26;112645;-68
2024/04/25 08:28:09;;;;;;;5.22;2.65;;;;;;;11.48;55.02;100583.78;5301144;26;121193;-69
2024/04/25 08:30:37;;;;;;;6.28;2.40;;;;;;;11.56;55.02;100582.53;5322864;26;127925;-68
2024/04/25 08:33:04;;;;;;;4.97;2.50;;;;;;;11.63;55.19;100578.63;5319535;26;112770;-68
2024/04/25 08:35:32;;;;;;;5.30;2.75;;;;;;;11.77;55.29;100581.41;5280951;26;112310;-68
2024/04/25 08:38:00;;;;;;;4.85;2.40;;;;;;;11.94;55.21;100579.63;5328296;26;122021;-68
2024/04/25 08:40:28;;;;;;;7.13;2.60;;;;;;;12.07;54.97;100570.94;5328274;26;122296;-68
2024/04/25 08:42:56;;;;;;;8.82;2.53;;;;;;;12.22;55.14;100579.84;5321850;26;113270;-69
2024/04/25 08:45:24;;;;;;;4.28;2.38;;;;;;;12.37;55.09;100577.22;5323458;26;113963;-68
2024/04/25 08:47:55;;;;;;;5.07;2.40;;;;;;;12.49;54.73;100571.25;5312965;26;122540;-68
2024/04/25 08:50:27;;;;;;;5.53;2.40;;;;;;;12.59;54.58;100577.72;5286582;26;121349;-69
2024/04/25 08:52:57;;;;;;;5.65;2.22;;;;;;;12.70;54.35;100573.59;5317116;26;112668;-68
2024/04/25 08:55:24;;;;;;;5.20;2.10;;;;;;;12.78;54.07;100581.97;5319887;26;114154;-68
2024/04/25 08:57:52;;;;;;;4.93;2.10;;;;;;;12.80;54.00;100574.75;5326984;26;120777;-68
2024/04/25 09:00:19;;;;;;;4.60;2.30;;;;;;;12.83;53.79;100572.78;5307861;26;121272;-68
2024/04/25 09:02:49;;;;;;;3.63;2.17;;;;;;;12.90;54.08;100565.28;5314828;26;112616;-68
2024/04/25 09:05:20;;;;;;;5.22;2.25;;;;;;;12.99;53.85;100570.06;5321143;26;112352;-69
2024/04/25 09:07:47;;;;;;;5.95;2.30;;;;;;;13.08;53.27;100567.81;5319004;26;122467;-68
2024/04/25 09:10:15;;;;;;;6.30;2.17;;;;;;;13.13;53.58;100555.06;5317676;26;122769;-68
2024/04/25 09:12:42;;;;;;;11.27;2.63;;;;;;;13.21;53.51;100560.81;5323175;26;112834;-68
2024/04/25 09:15:10;;;;;;;4.95;2.08;;;;;;;13.27;53.46;100557.78;5320619;26;112793;-68
2024/04/25 09:17:38;;;;;;;4.88;2.25;;;;;;;13.38;53.22;100554.50;5319405;26;122421;-69
2024/04/25 09:20:09;;;;;;;6.43;2.45;;;;;;;13.50;53.42;100550.22;5333660;26;122030;-69
2024/04/25 09:22:37;;;;;;;5.18;2.38;;;;;;;13.65;53.56;100543.94;5276421;26;112666;-68
2024/04/25 09:25:08;;;;;;;4.13;2.63;;;;;;;13.77;52.85;100540.50;5317700;26;112585;-68
2024/04/25 09:27:36;;;;;;;7.25;2.60;;;;;;;13.89;52.82;100538.00;5322481;26;122261;-68
2024/04/25 09:30:05;;;;;;;6.20;2.45;;;;;;;14.02;52.89;100544.25;5332147;26;122960;-68
2024/04/25 09:32:33;;;;;;;5.15;2.63;;;;;;;14.15;52.82;100550.50;5322275;26;113887;-68
2024/04/25 09:35:00;;;;;;;4.85;2.67;;;;;;;14.23;52.07;100525.19;5326905;26;113732;-68
2024/04/25 09:37:32;;;;;;;6.18;3.13;;;;;;;14.26;52.01;100535.63;5325283;26;122609;-68
2024/04/25 09:39:59;;;;;;;5.68;2.17;;;;;;;14.29;51.91;100532.78;5317276;26;121147;-68
2024/04/25 09:42:36;;;;;;;4.53;2.80;;;;;;;14.34;51.82;100522.66;5329518;26;112585;-68
2024/04/25 09:45:05;;;;;;;6.80;3.33;;;;;;;14.39;51.56;100525.88;5325267;26;112829;-68
2024/04/25 09:47:36;;;;;;;4.78;2.35;;;;;;;14.45;51.61;100522.81;5327810;26;122627;-68
2024/04/25 09:50:13;;;;;;;8.15;2.75;;;;;;;14.55;51.38;100520.38;5330049;26;122971;-68
2024/04/25 09:52:48;;;;;;;6.03;2.35;;;;;;;14.63;51.47;100517.22;5287485;26;112161;-68
2024/04/25 09:55:21;;;;;;;5.03;2.28;;;;;;;14.70;51.10;100513.19;5325951;26;113171;-68
2024/04/25 09:57:50;;;;;;;6.13;2.20;;;;;;;14.75;50.69;100516.41;5319478;26;122190;-68
2024/04/25 10:00:18;;;;;;;5.13;2.88;;;;;;;14.81;51.19;100509.81;5326589;26;122944;-69
2024/04/25 10:02:48;;;;;;;4.97;2.60;;;;;;;14.82;50.96;100512.34;5323017;26;113143;-68
2024/04/25 10:05:15;;;;;;;5.25;2.45;;;;;;;14.79;50.39;100507.25;5318417;26;113038;-68
2024/04/25 10:07:44;;;;;;;4.47;2.40;;;;;;;14.72;50.34;100511.28;5321355;26;122718;-68
2024/04/25 10:10:12;;;;;;;6.78;2.35;;;;;;;14.63;50.10;100511.91;5289703;26;121765;-68
2024/04/25 10:12:48;;;;;;;5.32;2.10;;;;;;;14.57;49.73;100519.34;5327136;26;112749;-68
2024/04/25 10:15:25;;;;;;;6.57;2.28;;;;;;;14.49;49.74;100521.66;5321371;26;112441;-69
2024/04/25 10:17:53;;;;;;;6.20;1.90;;;;;;;14.38;49.65;100517.03;5316497;26;123236;-69
2024/04/25 10:20:21;;;;;;;8.18;2.10;;;;;;;14.30;49.65;100505.19;5315603;26;122676;-68
2024/04/25 10:22:59;;;;;;;2.67;1.80;;;;;;;14.20;49.36;100503.13;5320427;26;113820;-68
2024/04/25 10:25:27;;;;;;;5.15;1.98;;;;;;;14.15;49.53;100507.91;5322107;26;115368;-68
2024/04/25 10:28:01;;;;;;;5.63;2.15;;;;;;;14.13;49.37;100504.47;5291455;26;122063;-68
2024/04/25 10:30:28;;;;;;;2.85;1.80;;;;;;;14.11;49.49;100501.06;5303719;26;121989;-68
2024/04/25 10:32:56;;;;;;;3.42;1.58;;;;;;;14.09;49.47;100496.78;5286901;26;112965;-68
2024/04/25 10:35:24;;;;;;;4.78;2.05;;;;;;;14.12;49.91;100492.09;5316810;26;112953;-68
2024/04/25 10:37:55;;;;;;;8.63;1.55;;;;;;;14.15;49.51;100491.91;5319400;26;122288;-68
2024/04/25 10:40:22;;;;;;;5.07;1.70;;;;;;;14.16;49.32;100493.59;5286486;26;121460;-68
2024/04/25 10:42:58;;;;;;;6.70;2.00;;;;;;;14.18;49.13;100497.03;5309702;26;112423;-68
2024/04/25 10:45:31;;;;;;;4.88;1.90;;;;;;;14.21;49.10;100491.50;5298079;26;113535;-68
2024/04/25 10:47:59;;;;;;;4.40;1.83;;;;;;;14.23;49.08;100485.22;5311668;26;120224;-68
2024/04/25 10:50:29;;;;;;;5.75;2.65;;;;;;;14.21;48.95;100480.84;5322806;26;122409;-68
2024/04/25 10:52:57;;;;;;;7.32;2.50;;;;;;;14.18;49.04;100481.06;5318967;26;112980;-68
2024/04/25 10:55:24;;;;;;;6.55;2.38;;;;;;;14.15;48.86;100475.94;5315096;26;112558;-68
2024/04/25 10:57:52;;;;;;;5.63;2.42;;;;;;;14.17;48.85;100478.50;5314948;26;122174;-68
2024/04/25 11:00:20;;;;;;;4.78;2.92;;;;;;;14.16;48.86;100472.28;5308081;26;122088;-69
2024/04/25 11:02:50;;;;;;;4.47;2.90;;;;;;;14.18;48.71;100474.88;5319655;26;112787;-68
2024/04/25 11:05:18;;;;;;;5.68;3.13;;;;;;;14.21;48.95;100474.66;5286048;26;112524;-68
2024/04/25 11:07:46;;;;;;;4.32;2.70;;;;;;;14.20;48.96;100468.50;5329446;26;122329;-68
2024/04/25 11:10:15;;;;;;;6.15;3.10;;;;;;;14.19;48.49;100458.78;5321671;26;121238;-69
2024/04/25 11:12:44;;;;;;;4.88;2.90;;;;;;;14.18;48.88;100454.44;5328228;26;113526;-68
2024/04/25 11:15:16;;;;;;;5.97;3.22;;;;;;;14.22;48.57;100460.38;5321444;26;113331;-68
2024/04/25 11:17:44;;;;;;;9.00;3.13;;;;;;;14.27;48.75;100457.44;5312284;26;122359;-68
2024/04/25 11:20:33;;;;;;;5.00;2.50;;;;;;;14.32;48.53;100460.66;5310031;26;122788;-68
2024/04/25 11:23:19;;;;;;;7.82;2.80;;;;;;;14.35;48.36;100465.75;5320934;26;113297;-68
2024/04/25 11:25:48;;;;;;;5.30;2.88;;;;;;;14.38;48.54;100457.56;5288640;26;112547;-68
2024/04/25 11:28:19;;;;;;;7.55;2.58;;;;;;;14.41;48.37;100463.53;5314330;26;123129;-68
2024/04/25 11:30:47;;;;;;;6.65;2.47;;;;;;;14.43;48.38;100459.91;5328933;26;122135;-69